Terminal Aerodrome Forecast
Issued by NWS

Home | Current Version | Previous Version | Text Only | Print | Product List | Glossary Off
Versions: 1 2 3 4 5 6 7 8 9 10 11 12 13 14 15

000
FTUS43 KTOP 181500 AAB
TAFFOE
TAF AMD
KFOE 181524Z 1815/1912 17010KT 4SM -SHRA BR VCTS SCT035CB OVC080
     FM181700 14006KT 6SM -SHRA BR SCT015 OVC050
     FM181900 16009KT P6SM BKN080
     FM190900 09003KT 4SM -TSRA BKN040CB=

USA.gov is the U.S. government's official web portal to all federal, state and local government web resources and services.